Merritt Island, FL (32953)

8:38 PM EDT on October 24, 2014 (GMT -0400)
Waterway Manor | Change Station
CLOSE
Current Station
Personal Weather Station
Location: Merritt Island, FL
Elevation: 16 ft
Nearby Weather Stations

Elev 16 ft 28.39 °N, 80.70 °W | Updated 13 seconds ago

Overcast
Overcast
70.9 °F
Feels Like 74 °F
N
0.0
Wind Variable Wind from North
Gusts 0.0 mph

Today
High -- | Low -- °F
--% Chance of Precip.
Yesterday
High -- | Low -- °F
Precip. -- in
7:29 AM 6:44 PM
New Moon, 1% visible
Pressure 29.93 in
Visibility 10.0 miles
Clouds Mostly Cloudy 4600 ft
Heat Index 74 °F
Dew Point 61 °F
Humidity 72%
Rainfall 0.00 in
Snow Depth Not available.
UV 0 out of 12
Pollen 5.70 out of 12
Air Quality Not available.
Flu Activity Local Activity
METAR KXMR 242358Z AUTO 05004KT 10SM BKN046 23/13 A2992 RMK AO2 SLP135 T02300134 10259 20225 53004 $

More Conditions Fewer Conditions

Pressure 29.93 in
Visibility 10.0 miles
Clouds Mostly Cloudy 4600 ft
Heat Index 74 °F
Dew Point 61 °F
Humidity 72%
Rainfall 0.00 in
Snow Depth Not available.
UV 0 out of 12
Pollen 5.70 out of 12
Air Quality Not available.
Flu Activity Local Activity
METAR KXMR 242358Z AUTO 05004KT 10SM BKN046 23/13 A2992 RMK AO2 SLP135 T02300134 10259 20225 53004 $

More Conditions Fewer Conditions

10-Day Weather Forecast

Almanac

Astronomy

Oct. 24, 2014 Rise Set
Actual Time 7:29 AM EDT 6:44 PM EDT
Civil Twilight 7:05 AM EDT 7:08 PM EDT
Nautical Twilight 6:37 AM EDT 7:36 PM EDT
Astronomical Twilight 6:10 AM EDT 8:03 PM EDT
Moon 8:04 AM EDT (10/24) 7:27 PM EDT (10/24)
Length of Visible Light 12h 03m
Length of Day
11h 15m
Tomorrow will be 1m 33s shorter.
New Moon, 1% of the Moon is Illuminated
Today
New Moon
Oct 30
First Quarter
Nov 6
Full
Nov 14
Last Quarter
Nov 22
New

Today's Extremes

State Highs State Lows

Community

WunderPhotos

Upload Photos

1,764,727 photos uploaded!

WunderBlogs® & News

Nearby

Snow Depth

Station Depth Elevation
No new snow has been reported.

Earthquake Activity

City Distance Mag. Time & Date
No recent earthquake activity has been reported nearby.
Minimum magnitude displayed is 2.5.

Coastal Water Temperatures

Place Temperature
Trident Pier, FL 79.0 °F
Fort Myers, FL 79.0 °F
Lake Worth, FL 79.0 °F

Nearby Weather Stations